59FL weather

Florida Power & Light-Juno Beach Heliport
Juno Beach, Florida, United States

Public forecast

Using degrees Fahrenheit for public forecast. Weather courtesy of forecast.io.

METAR (pilot weather report)

Closest report is Palm Beach International Airport, 10.8 nm (20.0 km) S. Retrieved 2019/06/19 22:43 UTC (0 seconds ago):

KPBI 192243Z 15003KT 10SM -RA FEW030 BKN110 BKN250 24/22 A3001 RMK AO2 RAB02 TSE42 CB DSNT W P0006 T02390217

TAF (pilot weather forecast)

Closest forecast is Palm Beach International Airport, 10.8 nm (20.0 km) S. Retrieved 2019/06/19 18:28 UTC (4 hours ago):

TAF KPBI 191722Z 1918/2018 15008KT P6SM VCTS SCT025CB BKN035 BKN080 FM192200 19008KT P6SM SCT030 SCT070 BKN250 FM200100 21005KT P6SM SCT020 BKN250 FM201400 19010KT P6SM SCT025 SCT070 SCT250